sensor_id;sensor_type;location;lat;lon;timestamp;pressure;altitude;pressure_sealevel;temperature;humidity
23446;BME280;11895;48.738;9.320;2023-01-26T00:02:08;99368.13;;;4.76;100.00
23446;BME280;11895;48.738;9.320;2023-01-26T00:04:36;99351.03;;;4.89;100.00
23446;BME280;11895;48.738;9.320;2023-01-26T00:07:04;99360.91;;;4.84;100.00
23446;BME280;11895;48.738;9.320;2023-01-26T00:09:31;99349.59;;;4.64;100.00
23446;BME280;11895;48.738;9.320;2023-01-26T00:11:59;99340.56;;;4.76;100.00
23446;BME280;11895;48.738;9.320;2023-01-26T00:14:27;99349.28;;;4.88;100.00
23446;BME280;11895;48.738;9.320;2023-01-26T00:17:19;99349.28;;;4.88;100.00
23446;BME280;11895;48.738;9.320;2023-01-26T00:19:57;99342.22;;;4.84;100.00
23446;BME280;11895;48.738;9.320;2023-01-26T00:22:26;99342.28;;;4.78;100.00
23446;BME280;11895;48.738;9.320;2023-01-26T00:24:54;99342.84;;;5.00;100.00
23446;BME280;11895;48.738;9.320;2023-01-26T00:27:22;99338.59;;;4.88;100.00
23446;BME280;11895;48.738;9.320;2023-01-26T00:29:49;99328.72;;;4.92;100.00
23446;BME280;11895;48.738;9.320;2023-01-26T00:32:17;99327.19;;;4.79;100.00
23446;BME280;11895;48.738;9.320;2023-01-26T00:34:45;99316.31;;;4.89;100.00
23446;BME280;11895;48.738;9.320;2023-01-26T00:37:13;99318.91;;;4.35;100.00
23446;BME280;11895;48.738;9.320;2023-01-26T00:39:40;99304.22;;;4.02;100.00
23446;BME280;11895;48.738;9.320;2023-01-26T00:42:09;99309.56;;;4.64;100.00
23446;BME280;11895;48.738;9.320;2023-01-26T00:44:42;99301.38;;;4.79;100.00
23446;BME280;11895;48.738;9.320;2023-01-26T00:47:16;99298.91;;;4.66;100.00
23446;BME280;11895;48.738;9.320;2023-01-26T00:49:49;99306.59;;;4.85;100.00
23446;BME280;11895;48.738;9.320;2023-01-26T00:52:17;99295.78;;;4.95;100.00
23446;BME280;11895;48.738;9.320;2023-01-26T00:54:45;99296.16;;;4.70;100.00
23446;BME280;11895;48.738;9.320;2023-01-26T00:57:14;99290.75;;;4.73;100.00
23446;BME280;11895;48.738;9.320;2023-01-26T00:59:41;99284.47;;;4.79;100.00
23446;BME280;11895;48.738;9.320;2023-01-26T01:02:09;99293.63;;;3.98;100.00
23446;BME280;11895;48.738;9.320;2023-01-26T01:04:37;99291.00;;;3.93;100.00
23446;BME280;11895;48.738;9.320;2023-01-26T01:07:04;99292.63;;;4.05;100.00
23446;BME280;11895;48.738;9.320;2023-01-26T01:09:32;99294.13;;;4.27;100.00
23446;BME280;11895;48.738;9.320;2023-01-26T01:12:00;99286.19;;;4.21;100.00
23446;BME280;11895;48.738;9.320;2023-01-26T01:14:28;99284.28;;;4.29;100.00
23446;BME280;11895;48.738;9.320;2023-01-26T01:16:56;99282.25;;;4.50;100.00
23446;BME280;11895;48.738;9.320;2023-01-26T01:19:24;99283.88;;;4.60;100.00
23446;BME280;11895;48.738;9.320;2023-01-26T01:21:52;99284.59;;;4.71;100.00
23446;BME280;11895;48.738;9.320;2023-01-26T01:24:20;99276.69;;;4.63;100.00
23446;BME280;11895;48.738;9.320;2023-01-26T01:26:48;99286.41;;;4.69;100.00
23446;BME280;11895;48.738;9.320;2023-01-26T01:29:15;99288.16;;;4.70;100.00
23446;BME280;11895;48.738;9.320;2023-01-26T01:31:43;99280.16;;;4.70;100.00
23446;BME280;11895;48.738;9.320;2023-01-26T01:34:11;99276.44;;;4.80;100.00
23446;BME280;11895;48.738;9.320;2023-01-26T01:36:39;99278.56;;;3.94;100.00
23446;BME280;11895;48.738;9.320;2023-01-26T01:39:10;99279.41;;;3.96;100.00
23446;BME280;11895;48.738;9.320;2023-01-26T01:41:38;99279.47;;;3.93;100.00
23446;BME280;11895;48.738;9.320;2023-01-26T01:44:21;99275.69;;;4.09;100.00
23446;BME280;11895;48.738;9.320;2023-01-26T01:47:08;99275.78;;;4.03;100.00
23446;BME280;11895;48.738;9.320;2023-01-26T01:49:46;99264.78;;;4.27;100.00
23446;BME280;11895;48.738;9.320;2023-01-26T01:52:18;99263.13;;;4.19;100.00
23446;BME280;11895;48.738;9.320;2023-01-26T01:54:57;99259.59;;;4.15;100.00
23446;BME280;11895;48.738;9.320;2023-01-26T01:57:35;99271.22;;;4.11;100.00
23446;BME280;11895;48.738;9.320;2023-01-26T02:00:14;99269.66;;;3.13;100.00
23446;BME280;11895;48.738;9.320;2023-01-26T02:03:01;99267.56;;;3.46;100.00
23446;BME280;11895;48.738;9.320;2023-01-26T02:08:28;99264.03;;;3.44;100.00
23446;BME280;11895;48.738;9.320;2023-01-26T02:11:01;99260.09;;;3.78;100.00
23446;BME280;11895;48.738;9.320;2023-01-26T02:13:33;99255.34;;;4.02;100.00
23446;BME280;11895;48.738;9.320;2023-01-26T02:16:03;99258.56;;;3.56;100.00
23446;BME280;11895;48.738;9.320;2023-01-26T02:18:32;99259.00;;;3.13;100.00
23446;BME280;11895;48.738;9.320;2023-01-26T02:21:01;99248.09;;;3.41;100.00
23446;BME280;11895;48.738;9.320;2023-01-26T02:26:28;99251.84;;;3.18;100.00
23446;BME280;11895;48.738;9.320;2023-01-26T02:28:59;99244.53;;;3.42;100.00
23446;BME280;11895;48.738;9.320;2023-01-26T02:31:28;99242.38;;;3.74;100.00
23446;BME280;11895;48.738;9.320;2023-01-26T02:33:57;99242.13;;;3.94;100.00
23446;BME280;11895;48.738;9.320;2023-01-26T02:36:28;99241.28;;;3.89;100.00
23446;BME280;11895;48.738;9.320;2023-01-26T02:39:20;99233.97;;;4.06;100.00
23446;BME280;11895;48.738;9.320;2023-01-26T02:41:52;99238.34;;;4.12;100.00
23446;BME280;11895;48.738;9.320;2023-01-26T02:44:56;99240.41;;;3.92;100.00
23446;BME280;11895;48.738;9.320;2023-01-26T02:47:24;99229.75;;;3.15;100.00
23446;BME280;11895;48.738;9.320;2023-01-26T02:49:52;99232.00;;;3.50;100.00
23446;BME280;11895;48.738;9.320;2023-01-26T02:52:23;99233.69;;;3.57;100.00
23446;BME280;11895;48.738;9.320;2023-01-26T02:55:07;99230.47;;;3.27;100.00
23446;BME280;11895;48.738;9.320;2023-01-26T02:58:00;99223.09;;;3.54;100.00
23446;BME280;11895;48.738;9.320;2023-01-26T03:00:34;99225.13;;;3.30;100.00
23446;BME280;11895;48.738;9.320;2023-01-26T03:03:14;99216.50;;;3.04;100.00
23446;BME280;11895;48.738;9.320;2023-01-26T03:06:08;99220.47;;;2.58;100.00
23446;BME280;11895;48.738;9.320;2023-01-26T03:08:38;99217.94;;;2.40;100.00
23446;BME280;11895;48.738;9.320;2023-01-26T03:11:07;99211.63;;;2.58;100.00
23446;BME280;11895;48.738;9.320;2023-01-26T03:13:35;99210.72;;;2.59;100.00
23446;BME280;11895;48.738;9.320;2023-01-26T03:16:06;99209.81;;;2.62;100.00
23446;BME280;11895;48.738;9.320;2023-01-26T03:18:36;99202.38;;;2.99;100.00
23446;BME280;11895;48.738;9.320;2023-01-26T03:21:22;99193.44;;;3.06;100.00
23446;BME280;11895;48.738;9.320;2023-01-26T03:24:12;99205.47;;;3.44;100.00
23446;BME280;11895;48.738;9.320;2023-01-26T03:27:03;99191.06;;;3.57;100.00
23446;BME280;11895;48.738;9.320;2023-01-26T03:29:50;99186.56;;;3.62;100.00
23446;BME280;11895;48.738;9.320;2023-01-26T03:32:18;99187.28;;;3.76;100.00
23446;BME280;11895;48.738;9.320;2023-01-26T03:34:46;99194.75;;;3.48;100.00
23446;BME280;11895;48.738;9.320;2023-01-26T03:37:14;99186.38;;;3.79;100.00
23446;BME280;11895;48.738;9.320;2023-01-26T03:39:51;99184.25;;;4.01;100.00
23446;BME280;11895;48.738;9.320;2023-01-26T03:42:38;99181.59;;;4.01;100.00
23446;BME280;11895;48.738;9.320;2023-01-26T03:45:26;99183.19;;;4.14;100.00
23446;BME280;11895;48.738;9.320;2023-01-26T03:48:13;99182.41;;;4.07;100.00
23446;BME280;11895;48.738;9.320;2023-01-26T03:51:00;99186.91;;;4.04;100.00
23446;BME280;11895;48.738;9.320;2023-01-26T03:53:46;99190.69;;;3.88;100.00
23446;BME280;11895;48.738;9.320;2023-01-26T03:56:39;99189.75;;;3.92;100.00
23446;BME280;11895;48.738;9.320;2023-01-26T03:59:13;99189.75;;;3.90;100.00
23446;BME280;11895;48.738;9.320;2023-01-26T04:01:45;99197.13;;;3.70;100.00
23446;BME280;11895;48.738;9.320;2023-01-26T04:04:33;99194.50;;;3.68;100.00
23446;BME280;11895;48.738;9.320;2023-01-26T04:07:28;99198.09;;;3.64;100.00
23446;BME280;11895;48.738;9.320;2023-01-26T04:10:15;99200.13;;;3.44;100.00
23446;BME280;11895;48.738;9.320;2023-01-26T04:12:42;99202.53;;;3.65;100.00
23446;BME280;11895;48.738;9.320;2023-01-26T04:15:15;99200.34;;;3.22;100.00
23446;BME280;11895;48.738;9.320;2023-01-26T04:18:06;99193.81;;;3.51;100.00
23446;BME280;11895;48.738;9.320;2023-01-26T04:20:54;99200.84;;;3.56;100.00
23446;BME280;11895;48.738;9.320;2023-01-26T04:23:43;99194.63;;;3.59;100.00
23446;BME280;11895;48.738;9.320;2023-01-26T04:26:10;99192.16;;;3.44;100.00
23446;BME280;11895;48.738;9.320;2023-01-26T04:28:38;99179.41;;;3.69;100.00
23446;BME280;11895;48.738;9.320;2023-01-26T04:31:08;99183.75;;;3.74;100.00
23446;BME280;11895;48.738;9.320;2023-01-26T04:33:37;99185.41;;;3.81;100.00
23446;BME280;11895;48.738;9.320;2023-01-26T04:36:07;99184.47;;;3.87;100.00
23446;BME280;11895;48.738;9.320;2023-01-26T04:38:39;99178.94;;;4.02;100.00
23446;BME280;11895;48.738;9.320;2023-01-26T04:41:07;99183.38;;;4.00;100.00
23446;BME280;11895;48.738;9.320;2023-01-26T04:43:42;99176.47;;;3.89;100.00
23446;BME280;11895;48.738;9.320;2023-01-26T04:46:10;99172.72;;;4.02;100.00
23446;BME280;11895;48.738;9.320;2023-01-26T04:48:39;99167.34;;;4.05;100.00
23446;BME280;11895;48.738;9.320;2023-01-26T04:51:16;99165.56;;;4.04;100.00
23446;BME280;11895;48.738;9.320;2023-01-26T04:53:47;99158.50;;;4.03;100.00
23446;BME280;11895;48.738;9.320;2023-01-26T04:58:51;99154.84;;;4.08;100.00
23446;BME280;11895;48.738;9.320;2023-01-26T05:01:20;99169.06;;;4.09;100.00
23446;BME280;11895;48.738;9.320;2023-01-26T05:03:49;99158.28;;;4.15;100.00
23446;BME280;11895;48.738;9.320;2023-01-26T05:06:17;99156.44;;;4.20;100.00
23446;BME280;11895;48.738;9.320;2023-01-26T05:08:47;99159.16;;;4.16;100.00
23446;BME280;11895;48.738;9.320;2023-01-26T05:11:15;99161.94;;;4.09;100.00
23446;BME280;11895;48.738;9.320;2023-01-26T05:14:15;99156.63;;;4.08;100.00
23446;BME280;11895;48.738;9.320;2023-01-26T05:17:02;99157.47;;;4.11;100.00
23446;BME280;11895;48.738;9.320;2023-01-26T05:19:48;99160.09;;;4.13;100.00
23446;BME280;11895;48.738;9.320;2023-01-26T05:22:18;99158.38;;;4.09;100.00
23446;BME280;11895;48.738;9.320;2023-01-26T05:25:12;99158.59;;;3.97;100.00
23446;BME280;11895;48.738;9.320;2023-01-26T05:27:47;99172.13;;;3.80;100.00
23446;BME280;11895;48.738;9.320;2023-01-26T05:30:15;99165.63;;;3.99;100.00
23446;BME280;11895;48.738;9.320;2023-01-26T05:32:43;99167.34;;;4.05;100.00
23446;BME280;11895;48.738;9.320;2023-01-26T05:35:12;99174.50;;;4.00;100.00
23446;BME280;11895;48.738;9.320;2023-01-26T05:37:40;99170.91;;;4.04;100.00
23446;BME280;11895;48.738;9.320;2023-01-26T05:40:10;99174.41;;;4.06;100.00
23446;BME280;11895;48.738;9.320;2023-01-26T05:42:40;99168.94;;;4.15;100.00
23446;BME280;11895;48.738;9.320;2023-01-26T05:45:18;99168.91;;;4.18;100.00
23446;BME280;11895;48.738;9.320;2023-01-26T05:47:48;99177.94;;;4.11;100.00
23446;BME280;11895;48.738;9.320;2023-01-26T05:50:19;99178.88;;;4.07;100.00
23446;BME280;11895;48.738;9.320;2023-01-26T05:53:08;99178.88;;;4.05;100.00
23446;BME280;11895;48.738;9.320;2023-01-26T05:55:37;99175.28;;;4.08;100.00
23446;BME280;11895;48.738;9.320;2023-01-26T05:58:05;99183.31;;;4.05;100.00
23446;BME280;11895;48.738;9.320;2023-01-26T06:00:33;99177.16;;;4.03;100.00
23446;BME280;11895;48.738;9.320;2023-01-26T06:03:08;99177.84;;;4.14;100.00
23446;BME280;11895;48.738;9.320;2023-01-26T06:05:36;99181.91;;;3.79;100.00
23446;BME280;11895;48.738;9.320;2023-01-26T06:08:16;99179.81;;;4.03;100.00
23446;BME280;11895;48.738;9.320;2023-01-26T06:11:01;99190.41;;;4.06;100.00
23446;BME280;11895;48.738;9.320;2023-01-26T06:13:44;99182.41;;;4.07;100.00
23446;BME280;11895;48.738;9.320;2023-01-26T06:16:27;99179.84;;;4.00;100.00
23446;BME280;11895;48.738;9.320;2023-01-26T06:18:55;99182.34;;;4.10;100.00
23446;BME280;11895;48.738;9.320;2023-01-26T06:21:23;99177.22;;;3.98;100.00
23446;BME280;11895;48.738;9.320;2023-01-26T06:23:52;99180.00;;;3.89;100.00
23446;BME280;11895;48.738;9.320;2023-01-26T06:26:20;99179.94;;;3.94;100.00
23446;BME280;11895;48.738;9.320;2023-01-26T06:28:47;99170.19;;;3.93;100.00
23446;BME280;11895;48.738;9.320;2023-01-26T06:31:16;99185.38;;;3.88;100.00
23446;BME280;11895;48.738;9.320;2023-01-26T06:33:44;99185.28;;;3.91;100.00
23446;BME280;11895;48.738;9.320;2023-01-26T06:36:14;99180.78;;;3.97;100.00
23446;BME280;11895;48.738;9.320;2023-01-26T06:38:47;99188.16;;;3.78;100.00
23446;BME280;11895;48.738;9.320;2023-01-26T06:41:17;99183.53;;;3.90;100.00
23446;BME280;11895;48.738;9.320;2023-01-26T06:43:47;99181.78;;;3.89;100.00
23446;BME280;11895;48.738;9.320;2023-01-26T06:46:19;99185.25;;;3.95;100.00
23446;BME280;11895;48.738;9.320;2023-01-26T06:48:49;99181.78;;;3.89;100.00
23446;BME280;11895;48.738;9.320;2023-01-26T06:53:53;99176.59;;;3.79;100.00
23446;BME280;11895;48.738;9.320;2023-01-26T06:56:30;99177.31;;;3.91;100.00
23446;BME280;11895;48.738;9.320;2023-01-26T06:59:19;99179.38;;;3.67;100.00
23446;BME280;11895;48.738;9.320;2023-01-26T07:02:04;99181.91;;;3.79;100.00
23446;BME280;11895;48.738;9.320;2023-01-26T07:04:46;99173.88;;;3.82;100.00
23446;BME280;11895;48.738;9.320;2023-01-26T07:07:15;99178.19;;;3.93;100.00
23446;BME280;11895;48.738;9.320;2023-01-26T07:09:43;99187.84;;;4.01;100.00
23446;BME280;11895;48.738;9.320;2023-01-26T07:12:11;99183.63;;;3.83;100.00
23446;BME280;11895;48.738;9.320;2023-01-26T07:14:38;99185.38;;;3.88;100.00
23446;BME280;11895;48.738;9.320;2023-01-26T07:17:06;99186.16;;;3.94;100.00
23446;BME280;11895;48.738;9.320;2023-01-26T07:19:34;99181.56;;;4.04;100.00
23446;BME280;11895;48.738;9.320;2023-01-26T07:22:03;99178.75;;;4.16;100.00
23446;BME280;11895;48.738;9.320;2023-01-26T07:24:31;99190.22;;;4.20;100.00
23446;BME280;11895;48.738;9.320;2023-01-26T07:26:59;99191.25;;;4.09;100.00
23446;BME280;11895;48.738;9.320;2023-01-26T07:29:28;99194.91;;;4.04;100.00
23446;BME280;11895;48.738;9.320;2023-01-26T07:31:55;99193.06;;;4.07;100.00
23446;BME280;11895;48.738;9.320;2023-01-26T07:34:26;99192.00;;;4.19;100.00
23446;BME280;11895;48.738;9.320;2023-01-26T07:36:54;99190.41;;;4.06;100.00
23446;BME280;11895;48.738;9.320;2023-01-26T07:39:21;99186.94;;;4.01;100.00
23446;BME280;11895;48.738;9.320;2023-01-26T07:41:49;99195.84;;;4.00;100.00
23446;BME280;11895;48.738;9.320;2023-01-26T07:44:40;99199.31;;;4.06;100.00
23446;BME280;11895;48.738;9.320;2023-01-26T07:47:08;99194.97;;;3.99;100.00
23446;BME280;11895;48.738;9.320;2023-01-26T07:49:37;99206.47;;;4.03;100.00
23446;BME280;11895;48.738;9.320;2023-01-26T07:52:05;99197.44;;;4.13;100.00
23446;BME280;11895;48.738;9.320;2023-01-26T07:54:35;99198.22;;;4.20;100.00
23446;BME280;11895;48.738;9.320;2023-01-26T07:57:02;99196.50;;;4.16;100.00
23446;BME280;11895;48.738;9.320;2023-01-26T07:59:33;99199.09;;;4.20;100.00
23446;BME280;11895;48.738;9.320;2023-01-26T08:02:01;99193.69;;;4.26;100.00
23446;BME280;11895;48.738;9.320;2023-01-26T08:04:29;99186.00;;;4.06;100.00
23446;BME280;11895;48.738;9.320;2023-01-26T08:06:57;99190.50;;;4.01;100.00
23446;BME280;11895;48.738;9.320;2023-01-26T08:09:24;99189.53;;;4.05;100.00
23446;BME280;11895;48.738;9.320;2023-01-26T08:11:55;99191.16;;;4.16;100.00
23446;BME280;11895;48.738;9.320;2023-01-26T08:14:23;99188.59;;;4.11;100.00
23446;BME280;11895;48.738;9.320;2023-01-26T08:16:51;99189.44;;;4.13;100.00
23446;BME280;11895;48.738;9.320;2023-01-26T08:19:19;99186.63;;;4.22;100.00
23446;BME280;11895;48.738;9.320;2023-01-26T08:21:46;99183.25;;;4.09;100.00
23446;BME280;11895;48.738;9.320;2023-01-26T08:24:14;99179.63;;;4.15;100.00
23446;BME280;11895;48.738;9.320;2023-01-26T08:26:42;99185.63;;;4.31;100.00
23446;BME280;11895;48.738;9.320;2023-01-26T08:29:10;99178.47;;;4.33;100.00
23446;BME280;11895;48.738;9.320;2023-01-26T08:31:38;99179.41;;;4.30;100.00
23446;BME280;11895;48.738;9.320;2023-01-26T08:34:05;99174.09;;;4.27;100.00
23446;BME280;11895;48.738;9.320;2023-01-26T08:36:33;99181.06;;;4.37;100.00
23446;BME280;11895;48.738;9.320;2023-01-26T08:39:04;99183.06;;;4.23;100.00
23446;BME280;11895;48.738;9.320;2023-01-26T08:41:31;99197.03;;;4.41;100.00
23446;BME280;11895;48.738;9.320;2023-01-26T08:43:59;99181.97;;;4.35;100.00
23446;BME280;11895;48.738;9.320;2023-01-26T08:46:27;99180.78;;;4.56;100.00
23446;BME280;11895;48.738;9.320;2023-01-26T08:48:55;99182.53;;;4.57;100.00
23446;BME280;11895;48.738;9.320;2023-01-26T08:51:26;99172.72;;;4.57;100.00
23446;BME280;11895;48.738;9.320;2023-01-26T08:53:54;99173.59;;;4.58;100.00
23446;BME280;11895;48.738;9.320;2023-01-26T08:56:22;99169.22;;;4.55;100.00
23446;BME280;11895;48.738;9.320;2023-01-26T08:58:50;99169.78;;;4.73;100.00
23446;BME280;11895;48.738;9.320;2023-01-26T09:01:18;99162.75;;;4.70;100.00
23446;BME280;11895;48.738;9.320;2023-01-26T09:03:46;99164.53;;;4.68;100.00
23446;BME280;11895;48.738;9.320;2023-01-26T09:06:13;99164.34;;;4.80;100.00
23446;BME280;11895;48.738;9.320;2023-01-26T09:08:42;99167.91;;;4.79;100.00
23446;BME280;11895;48.738;9.320;2023-01-26T09:11:13;99161.72;;;4.79;100.00
23446;BME280;11895;48.738;9.320;2023-01-26T09:13:41;99163.63;;;4.71;100.00
23446;BME280;11895;48.738;9.320;2023-01-26T09:16:18;99168.63;;;4.89;100.00
23446;BME280;11895;48.738;9.320;2023-01-26T09:18:49;99158.19;;;4.75;100.00
23446;BME280;11895;48.738;9.320;2023-01-26T09:21:18;99159.16;;;4.71;100.00
23446;BME280;11895;48.738;9.320;2023-01-26T09:23:46;99170.13;;;4.53;100.00
23446;BME280;11895;48.738;9.320;2023-01-26T09:26:14;99168.34;;;4.55;100.00
23446;BME280;11895;48.738;9.320;2023-01-26T09:28:42;99175.44;;;4.56;100.00
23446;BME280;11895;48.738;9.320;2023-01-26T09:31:10;99175.47;;;4.53;100.00
23446;BME280;11895;48.738;9.320;2023-01-26T09:33:38;99180.78;;;4.56;100.00
23446;BME280;11895;48.738;9.320;2023-01-26T09:36:08;99184.28;;;4.59;100.00
23446;BME280;11895;48.738;9.320;2023-01-26T09:38:37;99192.03;;;4.73;100.00
23446;BME280;11895;48.738;9.320;2023-01-26T09:41:09;99187.56;;;4.74;100.00
23446;BME280;11895;48.738;9.320;2023-01-26T09:43:49;99183.38;;;4.60;100.00
23446;BME280;11895;48.738;9.320;2023-01-26T09:52:09;99182.94;;;4.85;100.00
23446;BME280;11895;48.738;9.320;2023-01-26T09:54:54;99181.94;;;4.90;100.00
23446;BME280;11895;48.738;9.320;2023-01-26T09:57:41;99195.16;;;4.98;100.00
23446;BME280;11895;48.738;9.320;2023-01-26T10:00:29;99187.34;;;4.87;100.00
23446;BME280;11895;48.738;9.320;2023-01-26T10:08:54;99173.03;;;4.92;100.00
23446;BME280;11895;48.738;9.320;2023-01-26T10:11:29;99182.09;;;4.81;100.00
23446;BME280;11895;48.738;9.320;2023-01-26T10:14:45;99182.09;;;4.81;100.00
23446;BME280;11895;48.738;9.320;2023-01-26T10:17:23;99186.84;;;4.64;100.00
23446;BME280;11895;48.738;9.320;2023-01-26T10:20:34;99182.19;;;4.77;100.00
23446;BME280;11895;48.738;9.320;2023-01-26T10:23:14;99177.53;;;4.89;100.00
23446;BME280;11895;48.738;9.320;2023-01-26T10:25:45;99180.28;;;4.83;100.00
23446;BME280;11895;48.738;9.320;2023-01-26T10:28:21;99177.84;;;4.71;100.00
23446;BME280;11895;48.738;9.320;2023-01-26T10:31:03;99178.19;;;5.01;100.00
23446;BME280;11895;48.738;9.320;2023-01-26T10:33:36;99173.97;;;4.89;100.00
23446;BME280;11895;48.738;9.320;2023-01-26T10:36:06;99172.31;;;4.82;100.00
23446;BME280;11895;48.738;9.320;2023-01-26T10:41:04;99178.16;;;5.04;100.00
23446;BME280;11895;48.738;9.320;2023-01-26T10:43:41;99173.69;;;5.04;100.00
23446;BME280;11895;48.738;9.320;2023-01-26T10:46:45;99174.63;;;5.02;100.00
23446;BME280;11895;48.738;9.320;2023-01-26T10:49:28;99174.56;;;5.05;100.00
23446;BME280;11895;48.738;9.320;2023-01-26T10:55:10;99179.28;;;4.90;100.00
23446;BME280;11895;48.738;9.320;2023-01-26T10:57:40;99178.72;;;4.72;100.00
23446;BME280;11895;48.738;9.320;2023-01-26T11:00:22;99176.81;;;4.78;100.00
23446;BME280;11895;48.738;9.320;2023-01-26T11:02:53;99181.81;;;4.97;100.00
23446;BME280;11895;48.738;9.320;2023-01-26T11:05:24;99176.31;;;5.06;100.00
23446;BME280;11895;48.738;9.320;2023-01-26T11:07:54;99177.38;;;4.97;100.00
23446;BME280;11895;48.738;9.320;2023-01-26T11:10:30;99165.25;;;4.79;100.00
23446;BME280;11895;48.738;9.320;2023-01-26T11:13:20;99169.94;;;4.65;100.00
23446;BME280;11895;48.738;9.320;2023-01-26T11:16:00;99169.13;;;4.61;100.00
23446;BME280;11895;48.738;9.320;2023-01-26T11:18:40;99173.47;;;4.67;100.00
23446;BME280;11895;48.738;9.320;2023-01-26T11:21:44;99162.78;;;4.67;100.00
23446;BME280;11895;48.738;9.320;2023-01-26T11:24:26;99158.44;;;4.61;100.00
23446;BME280;11895;48.738;9.320;2023-01-26T11:35:38;99150.50;;;4.57;100.00
23446;BME280;11895;48.738;9.320;2023-01-26T11:41:24;99150.50;;;4.57;100.00
23446;BME280;11895;48.738;9.320;2023-01-26T11:47:31;99150.66;;;4.48;100.00
23446;BME280;11895;48.738;9.320;2023-01-26T11:55:49;99143.63;;;4.44;100.00
23446;BME280;11895;48.738;9.320;2023-01-26T11:58:34;99145.13;;;4.60;100.00
23446;BME280;11895;48.738;9.320;2023-01-26T12:01:16;99142.88;;;4.35;100.00
23446;BME280;11895;48.738;9.320;2023-01-26T12:03:49;99130.03;;;4.57;100.00
23446;BME280;11895;48.738;9.320;2023-01-26T12:09:14;99124.03;;;4.45;100.00
23446;BME280;11895;48.738;9.320;2023-01-26T12:12:11;99129.13;;;4.60;100.00
23446;BME280;11895;48.738;9.320;2023-01-26T12:17:49;99119.09;;;4.73;100.00
23446;BME280;11895;48.738;9.320;2023-01-26T12:20:41;99114.59;;;4.76;100.00
23446;BME280;11895;48.738;9.320;2023-01-26T12:26:19;99114.34;;;4.90;100.00
23446;BME280;11895;48.738;9.320;2023-01-26T12:32:10;99099.34;;;4.83;100.00
23446;BME280;11895;48.738;9.320;2023-01-26T12:34:40;99094.81;;;4.86;100.00
23446;BME280;11895;48.738;9.320;2023-01-26T12:40:39;99085.59;;;4.56;100.00
23446;BME280;11895;48.738;9.320;2023-01-26T12:46:27;99078.59;;;4.99;100.00
23446;BME280;11895;48.738;9.320;2023-01-26T12:49:05;99066.84;;;5.06;100.00
23446;BME280;11895;48.738;9.320;2023-01-26T12:51:45;99069.78;;;4.94;100.00
23446;BME280;11895;48.738;9.320;2023-01-26T12:54:28;99079.09;;;4.71;100.00
23446;BME280;11895;48.738;9.320;2023-01-26T12:57:03;99072.28;;;5.01;100.00
23446;BME280;11895;48.738;9.320;2023-01-26T12:59:41;99071.41;;;5.01;100.00
23446;BME280;11895;48.738;9.320;2023-01-26T13:02:22;99079.16;;;5.14;100.00
23446;BME280;11895;48.738;9.320;2023-01-26T13:04:53;99074.88;;;5.06;100.00
23446;BME280;11895;48.738;9.320;2023-01-26T13:07:36;99080.47;;;4.92;100.00
23446;BME280;11895;48.738;9.320;2023-01-26T13:15:30;99082.84;;;4.61;100.00
23446;BME280;11895;48.738;9.320;2023-01-26T13:18:01;99080.69;;;4.81;100.00
23446;BME280;11895;48.738;9.320;2023-01-26T13:20:44;99073.94;;;4.62;100.00
23446;BME280;11895;48.738;9.320;2023-01-26T13:23:38;99074.25;;;4.45;100.00
23446;BME280;11895;48.738;9.320;2023-01-26T13:26:14;99080.44;;;4.47;100.00
23446;BME280;11895;48.738;9.320;2023-01-26T13:28:44;99078.69;;;4.46;100.00
23446;BME280;11895;48.738;9.320;2023-01-26T13:31:48;99070.28;;;4.18;100.00
23446;BME280;11895;48.738;9.320;2023-01-26T13:34:20;99065.63;;;4.29;100.00
23446;BME280;11895;48.738;9.320;2023-01-26T13:36:53;99070.91;;;4.32;100.00
23446;BME280;11895;48.738;9.320;2023-01-26T13:39:30;99065.88;;;4.14;100.00
23446;BME280;11895;48.738;9.320;2023-01-26T13:42:02;99072.78;;;4.27;100.00
23446;BME280;11895;48.738;9.320;2023-01-26T13:44:40;99065.69;;;4.26;100.00
23446;BME280;11895;48.738;9.320;2023-01-26T13:47:16;99062.22;;;4.21;100.00
23446;BME280;11895;48.738;9.320;2023-01-26T13:49:49;99058.69;;;4.19;100.00
23446;BME280;11895;48.738;9.320;2023-01-26T13:52:23;99067.56;;;4.21;100.00
23446;BME280;11895;48.738;9.320;2023-01-26T13:54:53;99062.06;;;4.30;100.00
23446;BME280;11895;48.738;9.320;2023-01-26T13:57:28;99060.09;;;4.42;100.00
23446;BME280;11895;48.738;9.320;2023-01-26T13:59:58;99067.22;;;4.39;100.00
23446;BME280;11895;48.738;9.320;2023-01-26T14:02:34;99069.25;;;4.25;100.00
23446;BME280;11895;48.738;9.320;2023-01-26T14:05:05;99076.50;;;4.16;100.00
23446;BME280;11895;48.738;9.320;2023-01-26T14:07:41;99074.34;;;4.39;100.00
23446;BME280;11895;48.738;9.320;2023-01-26T14:10:19;99067.09;;;4.47;100.00
23446;BME280;11895;48.738;9.320;2023-01-26T14:12:52;99076.97;;;4.42;100.00
23446;BME280;11895;48.738;9.320;2023-01-26T14:15:29;99074.75;;;4.16;100.00
23446;BME280;11895;48.738;9.320;2023-01-26T14:17:58;99080.78;;;4.27;100.00
23446;BME280;11895;48.738;9.320;2023-01-26T14:20:31;99075.47;;;4.26;100.00
23446;BME280;11895;48.738;9.320;2023-01-26T14:26:20;99076.41;;;4.23;100.00
23446;BME280;11895;48.738;9.320;2023-01-26T14:28:51;99081.69;;;4.26;100.00
23446;BME280;11895;48.738;9.320;2023-01-26T14:31:21;99076.28;;;4.29;100.00
23446;BME280;11895;48.738;9.320;2023-01-26T14:33:52;99076.22;;;4.34;100.00
23446;BME280;11895;48.738;9.320;2023-01-26T14:36:28;99085.19;;;4.28;100.00
23446;BME280;11895;48.738;9.320;2023-01-26T14:38:59;99080.00;;;4.21;100.00
23446;BME280;11895;48.738;9.320;2023-01-26T14:41:29;99089.13;;;4.06;100.00
23446;BME280;11895;48.738;9.320;2023-01-26T14:43:59;99087.09;;;4.20;100.00
23446;BME280;11895;48.738;9.320;2023-01-26T14:52:33;99090.56;;;4.25;100.00
23446;BME280;11895;48.738;9.320;2023-01-26T14:55:07;99089.13;;;4.07;100.00
23446;BME280;11895;48.738;9.320;2023-01-26T14:57:41;99096.09;;;4.16;100.00
23446;BME280;11895;48.738;9.320;2023-01-26T15:00:27;99097.94;;;4.11;100.00